Storm Events Database

Event Details

Event Thunderstorm Wind
Magnitude 50 kts.
State NEW YORK
County/Area SCHUYLER
WFO BGM
Begin Date 07/09/2007 16:35:00 EST-5
Begin Range 3
Begin Azimuth SE
Begin Location CAYUTA
Begin Lat/Lon 42.25/-76.66
End Date 07/09/2007 16:35:00 EST-5
Deaths Direct/Indirect 0/0 (fatality details below, when available...)
Injuries Direct/Indirect 0/0
Property Damage 0.00K
Crop Damage 0.00K
Episode Narrative A hot and humid airmass prevailed across central New York as a warm front stayed north of the region. High temperatures rose into the 90s as weak upper level impulses and localized boundaries interacted with this airmass to produce scattered thunderstorms. The environment was one of high cape and shear, allowing any thunderstorms that developed to easily become severe, producing wind damage and large hail.
Event Narrative A tree was blown down in Arnot Forest.


All events for this episode:

Location County/Zone St. Date Time T.Z. Type Mag Dth Inj PrD CrD
Totals: 0 0 18.00K 0.00K
CAMDEN ONEIDA CO. NY 07/09/2007 02:40 EST-5 Thunderstorm Wind 50 kts. EG 0 0 1.00K 0.00K
SOUTH LEBANON MADISON CO. NY 07/09/2007 16:05 EST-5 Thunderstorm Wind 50 kts. EG 0 0 1.00K 0.00K
SMYRNA CHENANGO CO. NY 07/09/2007 16:18 EST-5 Thunderstorm Wind 50 kts. EG 0 0 1.00K 0.00K
CAYUTA SCHUYLER CO. NY 07/09/2007 16:35 EST-5 Thunderstorm Wind 50 kts. EG 0 0 0.00K 0.00K
(ELM)ELMIRA ARPT CHEMUNG CO. NY 07/09/2007 16:45 EST-5 Hail 0.88 in. 0 0 0.00K 0.00K
PAINTED POST STEUBEN CO. NY 07/09/2007 16:45 EST-5 Hail 0.75 in. 0 0 0.00K 0.00K
ADDISON STEUBEN CO. NY 07/09/2007 16:55 EST-5 Thunderstorm Wind 50 kts. EG 0 0 5.00K 0.00K
MILFORD OTSEGO CO. NY 07/09/2007 17:08 EST-5 Thunderstorm Wind 52 kts. EG 0 0 0.00K 0.00K
NEW LISBON OTSEGO CO. NY 07/09/2007 17:10 EST-5 Thunderstorm Wind 50 kts. EG 0 0 2.00K 0.00K
PAINTED POST STEUBEN CO. NY 07/09/2007 17:15 EST-5 Thunderstorm Wind 50 kts. EG 0 0 0.00K 0.00K
SPENCER TIOGA CO. NY 07/09/2007 17:15 EST-5 Thunderstorm Wind 50 kts. EG 0 0 3.00K 0.00K
SHEPPS CORNERS ONONDAGA CO. NY 07/09/2007 17:20 EST-5 Hail 0.75 in. 0 0 0.00K 0.00K
SOUTH CORNING STEUBEN CO. NY 07/09/2007 17:24 EST-5 Hail 0.75 in. 0 0 0.00K 0.00K
PAINTED POST STEUBEN CO. NY 07/09/2007 17:24 EST-5 Thunderstorm Wind 50 kts. EG 0 0 5.00K 0.00K
RIVERSIDE STEUBEN CO. NY 07/09/2007 17:25 EST-5 Hail 0.75 in. 0 0 0.00K 0.00K
PORTLANDVILLE OTSEGO CO. NY 07/09/2007 17:30 EST-5 Hail 0.88 in. 0 0 0.00K 0.00K
NORWICH CHENANGO CO. NY 07/09/2007 17:32 EST-5 Hail 0.75 in. 0 0 0.00K 0.00K
ELMIRA HGTS CHEMUNG CO. NY 07/09/2007 17:38 EST-5 Hail 0.75 in. 0 0 0.00K 0.00K
ONEIDA MADISON CO. NY 07/09/2007 17:50 EST-5 Hail 1.75 in. 0 0 0.00K 0.00K
NEW HARTFORD ONEIDA CO. NY 07/09/2007 18:03 EST-5 Hail 0.75 in. 0 0 0.00K 0.00K
NEW HARTFORD ONEIDA CO. NY 07/09/2007 18:10 EST-5 Hail 1.00 in. 0 0 0.00K 0.00K
POLKVILLE CHENANGO CO. NY 07/09/2007 18:10 EST-5 Hail 0.88 in. 0 0 0.00K 0.00K
CLINTON ONEIDA CO. NY 07/09/2007 18:17 EST-5 Funnel Cloud 0 0 0.00K 0.00K
NEW HARTFORD ONEIDA CO. NY 07/09/2007 18:20 EST-5 Hail 1.00 in. 0 0 0.00K 0.00K
GLENORA YATES CO. NY 07/09/2007 19:50 EST-5 Hail 0.88 in. 0 0 0.00K 0.00K
NEWFIELD TOMPKINS CO. NY 07/09/2007 20:05 EST-5 Hail 1.75 in. 0 0 0.00K 0.00K
ITHACA TOMPKINS CO. NY 07/09/2007 20:20 EST-5 Hail 0.88 in. 0 0 0.00K 0.00K
NEWFIELD TOMPKINS CO. NY 07/09/2007 20:20 EST-5 Hail 1.75 in. 0 0 0.00K 0.00K
NEWFIELD TOMPKINS CO. NY 07/09/2007 20:25 EST-5 Hail 1.75 in. 0 0 0.00K 0.00K
CANDOR TIOGA CO. NY 07/09/2007 21:12 EST-5 Hail 1.00 in. 0 0 0.00K 0.00K
LISLE BROOME CO. NY 07/09/2007 21:15 EST-5 Hail 0.88 in. 0 0 0.00K 0.00K
BERKSHIRE TIOGA CO. NY 07/09/2007 21:16 EST-5 Hail 1.00 in. 0 0 0.00K 0.00K
Totals: 0 0 18.00K 0.00K